sensor_id;sensor_type;location;lat;lon;timestamp;pressure;altitude;pressure_sealevel;temperature;humidity
57376;BME280;44805;45.048;5.062;2022-12-07T00:00:21;99805.34;;;1.54;100.00
57376;BME280;44805;45.048;5.062;2022-12-07T00:13:14;99794.94;;;1.54;100.00
57376;BME280;44805;45.048;5.062;2022-12-07T00:15:44;99853.78;;;1.83;100.00
57376;BME280;44805;45.048;5.062;2022-12-07T00:18:15;99818.13;;;1.57;100.00
57376;BME280;44805;45.048;5.062;2022-12-07T00:20:44;99788.97;;;1.37;100.00
57376;BME280;44805;45.048;5.062;2022-12-07T00:23:11;99796.19;;;1.32;100.00
57376;BME280;44805;45.048;5.062;2022-12-07T00:25:38;99804.91;;;1.31;100.00
57376;BME280;44805;45.048;5.062;2022-12-07T00:28:04;99755.75;;;1.14;100.00
57376;BME280;44805;45.048;5.062;2022-12-07T00:30:30;99880.88;;;1.93;100.00
57376;BME280;44805;45.048;5.062;2022-12-07T00:32:55;99862.59;;;1.81;100.00
57376;BME280;44805;45.048;5.062;2022-12-07T00:35:21;99851.16;;;1.69;100.00
57376;BME280;44805;45.048;5.062;2022-12-07T00:37:47;99797.19;;;1.29;100.00
57376;BME280;44805;45.048;5.062;2022-12-07T00:40:13;99876.41;;;1.81;100.00
57376;BME280;44805;45.048;5.062;2022-12-07T00:42:39;99844.47;;;1.65;100.00
57376;BME280;44805;45.048;5.062;2022-12-07T00:45:05;99865.56;;;1.89;100.00
57376;BME280;44805;45.048;5.062;2022-12-07T00:47:30;99868.44;;;1.84;100.00
57376;BME280;44805;45.048;5.062;2022-12-07T00:49:56;99777.63;;;1.24;100.00
57376;BME280;44805;45.048;5.062;2022-12-07T00:52:21;99894.31;;;2.00;100.00
57376;BME280;44805;45.048;5.062;2022-12-07T00:54:48;99874.00;;;1.92;100.00
57376;BME280;44805;45.048;5.062;2022-12-07T00:57:17;99758.91;;;1.19;100.00
57376;BME280;44805;45.048;5.062;2022-12-07T00:59:44;99861.91;;;1.77;100.00
57376;BME280;44805;45.048;5.062;2022-12-07T01:02:10;99777.63;;;1.24;100.00
57376;BME280;44805;45.048;5.062;2022-12-07T01:04:35;99854.13;;;1.77;100.00
57376;BME280;44805;45.048;5.062;2022-12-07T01:07:00;99777.50;;;1.41;100.00
57376;BME280;44805;45.048;5.062;2022-12-07T01:09:26;99869.47;;;1.96;100.00
57376;BME280;44805;45.048;5.062;2022-12-07T01:11:52;99923.78;;;2.29;100.00
57376;BME280;44805;45.048;5.062;2022-12-07T01:14:17;99777.13;;;1.33;100.00
57376;BME280;44805;45.048;5.062;2022-12-07T01:16:43;99844.94;;;1.71;100.00
57376;BME280;44805;45.048;5.062;2022-12-07T01:19:09;99765.41;;;1.26;100.00
57376;BME280;44805;45.048;5.062;2022-12-07T01:21:35;99770.44;;;1.29;100.00
57376;BME280;44805;45.048;5.062;2022-12-07T01:24:08;99869.19;;;1.86;100.00
57376;BME280;44805;45.048;5.062;2022-12-07T01:26:50;99872.34;;;1.91;100.00
57376;BME280;44805;45.048;5.062;2022-12-07T01:29:15;99795.72;;;1.56;100.00
57376;BME280;44805;45.048;5.062;2022-12-07T01:31:41;99826.84;;;1.70;100.00
57376;BME280;44805;45.048;5.062;2022-12-07T01:34:09;99906.22;;;2.18;100.00
57376;BME280;44805;45.048;5.062;2022-12-07T01:36:36;99766.19;;;1.42;100.00
57376;BME280;44805;45.048;5.062;2022-12-07T01:39:05;99758.06;;;1.48;100.00
57376;BME280;44805;45.048;5.062;2022-12-07T01:47:48;99733.09;;;1.17;100.00
57376;BME280;44805;45.048;5.062;2022-12-07T01:50:16;99758.41;;;1.28;100.00
57376;BME280;44805;45.048;5.062;2022-12-07T01:52:43;99755.53;;;1.33;100.00
57376;BME280;44805;45.048;5.062;2022-12-07T01:55:12;99860.22;;;2.06;100.00
57376;BME280;44805;45.048;5.062;2022-12-07T01:57:44;99794.63;;;1.74;100.00
57376;BME280;44805;45.048;5.062;2022-12-07T02:00:13;99843.22;;;2.01;100.00
57376;BME280;44805;45.048;5.062;2022-12-07T02:05:31;99762.50;;;1.46;100.00
57376;BME280;44805;45.048;5.062;2022-12-07T02:07:57;99837.00;;;2.03;100.00
57376;BME280;44805;45.048;5.062;2022-12-07T02:13:38;99779.69;;;1.63;100.00
57376;BME280;44805;45.048;5.062;2022-12-07T02:24:13;99772.91;;;1.61;100.00
57376;BME280;44805;45.048;5.062;2022-12-07T02:30:07;99903.53;;;2.49;100.00
57376;BME280;44805;45.048;5.062;2022-12-07T02:32:51;99810.22;;;1.88;100.00
57376;BME280;44805;45.048;5.062;2022-12-07T02:35:28;99832.22;;;2.11;100.00
57376;BME280;44805;45.048;5.062;2022-12-07T02:38:31;99755.94;;;1.69;100.00
57376;BME280;44805;45.048;5.062;2022-12-07T02:41:31;99750.84;;;1.68;100.00
57376;BME280;44805;45.048;5.062;2022-12-07T02:44:02;99832.75;;;2.16;100.00
57376;BME280;44805;45.048;5.062;2022-12-07T02:46:44;99836.38;;;2.14;100.00
57376;BME280;44805;45.048;5.062;2022-12-07T02:49:12;99754.91;;;1.58;100.00
57376;BME280;44805;45.048;5.062;2022-12-07T02:51:44;99733.88;;;1.48;100.00
57376;BME280;44805;45.048;5.062;2022-12-07T02:54:17;99748.78;;;1.44;100.00
57376;BME280;44805;45.048;5.062;2022-12-07T02:57:05;99895.47;;;2.53;100.00
57376;BME280;44805;45.048;5.062;2022-12-07T03:08:47;99826.16;;;1.97;100.00
57376;BME280;44805;45.048;5.062;2022-12-07T03:11:25;99752.19;;;1.45;100.00
57376;BME280;44805;45.048;5.062;2022-12-07T03:14:30;99773.63;;;1.63;100.00
57376;BME280;44805;45.048;5.062;2022-12-07T03:17:31;99890.00;;;2.44;100.00
57376;BME280;44805;45.048;5.062;2022-12-07T03:20:02;99743.06;;;1.54;100.00
57376;BME280;44805;45.048;5.062;2022-12-07T03:22:32;99739.91;;;1.48;100.00
57376;BME280;44805;45.048;5.062;2022-12-07T03:28:14;99739.44;;;1.70;100.00
57376;BME280;44805;45.048;5.062;2022-12-07T03:31:10;99784.97;;;2.05;100.00
57376;BME280;44805;45.048;5.062;2022-12-07T03:37:05;99720.91;;;1.62;99.72
57376;BME280;44805;45.048;5.062;2022-12-07T03:39:49;99716.91;;;1.57;99.85
57376;BME280;44805;45.048;5.062;2022-12-07T03:46:21;99875.50;;;2.54;99.87
57376;BME280;44805;45.048;5.062;2022-12-07T03:52:03;99820.88;;;2.27;99.16
57376;BME280;44805;45.048;5.062;2022-12-07T03:57:03;99707.63;;;1.52;100.00
57376;BME280;44805;45.048;5.062;2022-12-07T03:59:31;99711.63;;;1.72;99.68
57376;BME280;44805;45.048;5.062;2022-12-07T04:02:02;99716.38;;;1.66;99.64
57376;BME280;44805;45.048;5.062;2022-12-07T04:04:32;99795.66;;;2.14;100.00
57376;BME280;44805;45.048;5.062;2022-12-07T04:06:59;99716.19;;;1.69;98.75
57376;BME280;44805;45.048;5.062;2022-12-07T04:09:28;99717.38;;;1.78;98.92
57376;BME280;44805;45.048;5.062;2022-12-07T04:12:15;99738.16;;;1.92;98.27
57376;BME280;44805;45.048;5.062;2022-12-07T04:14:42;99765.31;;;2.15;99.50
57376;BME280;44805;45.048;5.062;2022-12-07T04:17:15;99827.44;;;2.47;99.18
57376;BME280;44805;45.048;5.062;2022-12-07T04:19:41;99709.31;;;1.68;99.22
57376;BME280;44805;45.048;5.062;2022-12-07T04:22:08;99736.50;;;1.91;98.84
57376;BME280;44805;45.048;5.062;2022-12-07T04:24:36;99804.63;;;2.23;99.25
57376;BME280;44805;45.048;5.062;2022-12-07T04:27:36;99864.38;;;2.66;99.30
57376;BME280;44805;45.048;5.062;2022-12-07T04:30:07;99823.66;;;2.38;99.68
57376;BME280;44805;45.048;5.062;2022-12-07T04:32:49;99819.19;;;2.26;100.00
57376;BME280;44805;45.048;5.062;2022-12-07T04:35:20;99696.53;;;1.50;100.00
57376;BME280;44805;45.048;5.062;2022-12-07T04:37:56;99702.19;;;1.57;100.00
57376;BME280;44805;45.048;5.062;2022-12-07T04:40:24;99731.38;;;1.75;99.99
57376;BME280;44805;45.048;5.062;2022-12-07T04:42:51;99694.41;;;1.57;100.00
57376;BME280;44805;45.048;5.062;2022-12-07T04:45:17;99782.56;;;2.16;100.00
57376;BME280;44805;45.048;5.062;2022-12-07T04:47:43;99791.38;;;2.28;100.00
57376;BME280;44805;45.048;5.062;2022-12-07T04:50:09;99779.56;;;2.36;100.00
57376;BME280;44805;45.048;5.062;2022-12-07T04:55:07;99775.84;;;2.55;100.00
57376;BME280;44805;45.048;5.062;2022-12-07T04:57:32;99830.75;;;2.77;99.08
57376;BME280;44805;45.048;5.062;2022-12-07T07:38:00;99691.34;;;1.50;95.96
57376;BME280;44805;45.048;5.062;2022-12-07T08:00:53;99797.19;;;2.46;95.28
57376;BME280;44805;45.048;5.062;2022-12-07T08:08:41;99723.59;;;2.04;96.05
57376;BME280;44805;45.048;5.062;2022-12-07T08:11:13;99842.25;;;2.88;95.66
57376;BME280;44805;45.048;5.062;2022-12-07T08:16:46;99803.94;;;2.63;95.61
57376;BME280;44805;45.048;5.062;2022-12-07T08:19:12;99719.50;;;2.00;96.06
57376;BME280;44805;45.048;5.062;2022-12-07T08:21:38;99699.28;;;1.90;96.36
57376;BME280;44805;45.048;5.062;2022-12-07T08:26:31;99806.63;;;2.61;96.55
57376;BME280;44805;45.048;5.062;2022-12-07T08:29:17;99864.06;;;3.12;97.61
57376;BME280;44805;45.048;5.062;2022-12-07T08:31:43;99733.94;;;2.18;98.19
57376;BME280;44805;45.048;5.062;2022-12-07T08:34:15;99722.16;;;2.27;95.88
57376;BME280;44805;45.048;5.062;2022-12-07T08:36:40;99800.19;;;2.67;96.20
57376;BME280;44805;45.048;5.062;2022-12-07T08:39:06;99717.63;;;2.16;96.65
57376;BME280;44805;45.048;5.062;2022-12-07T08:41:32;99808.25;;;2.76;95.96
57376;BME280;44805;45.048;5.062;2022-12-07T08:44:10;99866.47;;;3.15;96.57
57376;BME280;44805;45.048;5.062;2022-12-07T08:46:44;99724.16;;;2.09;96.74
57376;BME280;44805;45.048;5.062;2022-12-07T08:49:16;99780.66;;;2.47;97.07
57376;BME280;44805;45.048;5.062;2022-12-07T08:51:46;99846.16;;;2.80;97.51
57376;BME280;44805;45.048;5.062;2022-12-07T08:54:16;99741.94;;;2.15;97.78
57376;BME280;44805;45.048;5.062;2022-12-07T08:56:44;99823.28;;;2.86;96.78
